sensor_id;sensor_type;location;lat;lon;timestamp;P1;durP1;ratioP1;P2;durP2;ratioP2
30020;SDS011;16861;52.294;7.760;2022-12-18T00:01:05;28.70;;;15.43;;
30020;SDS011;16861;52.294;7.760;2022-12-18T00:03:39;31.35;;;14.60;;
30020;SDS011;16861;52.294;7.760;2022-12-18T00:06:06;30.88;;;14.80;;
30020;SDS011;16861;52.294;7.760;2022-12-18T00:08:34;27.58;;;13.38;;
30020;SDS011;16861;52.294;7.760;2022-12-18T00:11:04;31.13;;;13.80;;
30020;SDS011;16861;52.294;7.760;2022-12-18T00:13:32;28.67;;;14.48;;
30020;SDS011;16861;52.294;7.760;2022-12-18T00:16:02;24.90;;;13.32;;
30020;SDS011;16861;52.294;7.760;2022-12-18T00:18:30;23.38;;;12.48;;
30020;SDS011;16861;52.294;7.760;2022-12-18T00:21:01;28.50;;;12.85;;
30020;SDS011;16861;52.294;7.760;2022-12-18T00:23:29;29.02;;;13.27;;
30020;SDS011;16861;52.294;7.760;2022-12-18T00:26:00;22.75;;;12.25;;
30020;SDS011;16861;52.294;7.760;2022-12-18T00:28:27;21.23;;;10.85;;
30020;SDS011;16861;52.294;7.760;2022-12-18T00:33:51;22.90;;;12.38;;
30020;SDS011;16861;52.294;7.760;2022-12-18T00:36:21;22.38;;;11.27;;
30020;SDS011;16861;52.294;7.760;2022-12-18T00:38:49;19.42;;;10.55;;
30020;SDS011;16861;52.294;7.760;2022-12-18T00:41:16;22.35;;;10.60;;
30020;SDS011;16861;52.294;7.760;2022-12-18T00:44:04;20.25;;;10.73;;
30020;SDS011;16861;52.294;7.760;2022-12-18T00:46:31;18.50;;;10.25;;
30020;SDS011;16861;52.294;7.760;2022-12-18T00:48:58;21.90;;;11.88;;
30020;SDS011;16861;52.294;7.760;2022-12-18T00:51:25;20.77;;;10.40;;
30020;SDS011;16861;52.294;7.760;2022-12-18T00:53:51;24.63;;;10.60;;
30020;SDS011;16861;52.294;7.760;2022-12-18T00:56:18;21.73;;;10.40;;
30020;SDS011;16861;52.294;7.760;2022-12-18T00:58:44;16.88;;;9.77;;
30020;SDS011;16861;52.294;7.760;2022-12-18T01:01:11;16.23;;;9.00;;
30020;SDS011;16861;52.294;7.760;2022-12-18T01:03:37;18.92;;;9.00;;
30020;SDS011;16861;52.294;7.760;2022-12-18T01:06:06;16.55;;;8.85;;
30020;SDS011;16861;52.294;7.760;2022-12-18T01:08:34;15.30;;;8.00;;
30020;SDS011;16861;52.294;7.760;2022-12-18T01:11:01;16.35;;;9.13;;
30020;SDS011;16861;52.294;7.760;2022-12-18T01:13:33;14.57;;;7.93;;
30020;SDS011;16861;52.294;7.760;2022-12-18T01:15:59;14.50;;;7.93;;
30020;SDS011;16861;52.294;7.760;2022-12-18T01:18:26;18.80;;;8.02;;
30020;SDS011;16861;52.294;7.760;2022-12-18T01:23:33;14.07;;;7.70;;
30020;SDS011;16861;52.294;7.760;2022-12-18T01:26:10;12.63;;;7.38;;
30020;SDS011;16861;52.294;7.760;2022-12-18T01:28:39;14.02;;;7.78;;
30020;SDS011;16861;52.294;7.760;2022-12-18T01:33:36;15.07;;;7.25;;
30020;SDS011;16861;52.294;7.760;2022-12-18T01:36:03;15.77;;;7.63;;
30020;SDS011;16861;52.294;7.760;2022-12-18T01:38:30;11.57;;;6.53;;
30020;SDS011;16861;52.294;7.760;2022-12-18T01:40:57;12.77;;;6.75;;
30020;SDS011;16861;52.294;7.760;2022-12-18T01:43:41;12.93;;;7.82;;
30020;SDS011;16861;52.294;7.760;2022-12-18T01:48:34;12.40;;;6.03;;
30020;SDS011;16861;52.294;7.760;2022-12-18T01:51:01;11.60;;;5.93;;
30020;SDS011;16861;52.294;7.760;2022-12-18T01:53:27;12.82;;;6.35;;
30020;SDS011;16861;52.294;7.760;2022-12-18T01:55:55;12.45;;;6.47;;
30020;SDS011;16861;52.294;7.760;2022-12-18T02:01:20;13.18;;;6.00;;
30020;SDS011;16861;52.294;7.760;2022-12-18T02:03:49;11.75;;;5.85;;
30020;SDS011;16861;52.294;7.760;2022-12-18T02:06:18;10.55;;;5.85;;
30020;SDS011;16861;52.294;7.760;2022-12-18T02:17:15;9.38;;;4.85;;
30020;SDS011;16861;52.294;7.760;2022-12-18T02:28:13;10.88;;;4.57;;
30020;SDS011;16861;52.294;7.760;2022-12-18T02:30:45;10.73;;;4.45;;
30020;SDS011;16861;52.294;7.760;2022-12-18T02:33:15;7.70;;;4.03;;
30020;SDS011;16861;52.294;7.760;2022-12-18T02:35:45;7.78;;;4.18;;
30020;SDS011;16861;52.294;7.760;2022-12-18T02:38:13;6.47;;;4.18;;
30020;SDS011;16861;52.294;7.760;2022-12-18T02:40:41;9.73;;;4.45;;
30020;SDS011;16861;52.294;7.760;2022-12-18T02:43:10;6.55;;;3.85;;
30020;SDS011;16861;52.294;7.760;2022-12-18T02:45:50;8.80;;;3.92;;
30020;SDS011;16861;52.294;7.760;2022-12-18T02:48:24;4.35;;;2.70;;
30020;SDS011;16861;52.294;7.760;2022-12-18T02:50:59;7.25;;;3.03;;
30020;SDS011;16861;52.294;7.760;2022-12-18T02:53:39;5.22;;;3.13;;
30020;SDS011;16861;52.294;7.760;2022-12-18T02:56:13;5.60;;;3.22;;
30020;SDS011;16861;52.294;7.760;2022-12-18T02:59:00;5.78;;;3.17;;
30020;SDS011;16861;52.294;7.760;2022-12-18T03:04:17;7.22;;;3.00;;
30020;SDS011;16861;52.294;7.760;2022-12-18T03:07:09;4.60;;;2.67;;
30020;SDS011;16861;52.294;7.760;2022-12-18T03:09:42;5.22;;;2.38;;
30020;SDS011;16861;52.294;7.760;2022-12-18T03:12:21;5.50;;;2.38;;
30020;SDS011;16861;52.294;7.760;2022-12-18T03:15:06;3.03;;;1.80;;
30020;SDS011;16861;52.294;7.760;2022-12-18T03:17:45;4.97;;;2.42;;
30020;SDS011;16861;52.294;7.760;2022-12-18T03:20:17;3.65;;;2.50;;
30020;SDS011;16861;52.294;7.760;2022-12-18T03:22:47;3.75;;;2.40;;
30020;SDS011;16861;52.294;7.760;2022-12-18T03:25:17;7.90;;;3.58;;
30020;SDS011;16861;52.294;7.760;2022-12-18T03:27:46;3.85;;;2.50;;
30020;SDS011;16861;52.294;7.760;2022-12-18T03:30:18;3.03;;;2.10;;
30020;SDS011;16861;52.294;7.760;2022-12-18T03:35:16;4.25;;;2.50;;
30020;SDS011;16861;52.294;7.760;2022-12-18T03:37:47;7.30;;;2.53;;
30020;SDS011;16861;52.294;7.760;2022-12-18T03:40:14;3.90;;;2.15;;
30020;SDS011;16861;52.294;7.760;2022-12-18T03:42:51;3.85;;;2.28;;
30020;SDS011;16861;52.294;7.760;2022-12-18T03:45:34;3.38;;;2.10;;
30020;SDS011;16861;52.294;7.760;2022-12-18T03:48:07;5.20;;;2.20;;
30020;SDS011;16861;52.294;7.760;2022-12-18T03:50:45;5.88;;;2.15;;
30020;SDS011;16861;52.294;7.760;2022-12-18T03:55:51;3.67;;;2.47;;
30020;SDS011;16861;52.294;7.760;2022-12-18T03:58:23;4.72;;;2.30;;
30020;SDS011;16861;52.294;7.760;2022-12-18T04:00:52;4.95;;;2.55;;
30020;SDS011;16861;52.294;7.760;2022-12-18T04:03:22;4.43;;;2.40;;
30020;SDS011;16861;52.294;7.760;2022-12-18T04:05:52;4.45;;;2.35;;
30020;SDS011;16861;52.294;7.760;2022-12-18T04:08:21;6.40;;;2.33;;
30020;SDS011;16861;52.294;7.760;2022-12-18T04:10:49;5.18;;;2.70;;
30020;SDS011;16861;52.294;7.760;2022-12-18T04:13:50;6.07;;;2.60;;
30020;SDS011;16861;52.294;7.760;2022-12-18T04:16:09;4.93;;;2.35;;
30020;SDS011;16861;52.294;7.760;2022-12-18T04:18:36;5.20;;;2.30;;
30020;SDS011;16861;52.294;7.760;2022-12-18T04:21:03;3.58;;;2.30;;
30020;SDS011;16861;52.294;7.760;2022-12-18T04:23:29;5.20;;;2.38;;
30020;SDS011;16861;52.294;7.760;2022-12-18T04:25:56;3.92;;;2.30;;
30020;SDS011;16861;52.294;7.760;2022-12-18T04:28:23;3.17;;;2.00;;
30020;SDS011;16861;52.294;7.760;2022-12-18T04:30:49;3.03;;;2.05;;
30020;SDS011;16861;52.294;7.760;2022-12-18T04:33:16;3.67;;;2.00;;
30020;SDS011;16861;52.294;7.760;2022-12-18T04:35:42;3.47;;;2.08;;
30020;SDS011;16861;52.294;7.760;2022-12-18T04:38:09;3.20;;;2.00;;
30020;SDS011;16861;52.294;7.760;2022-12-18T04:40:36;2.95;;;2.00;;
30020;SDS011;16861;52.294;7.760;2022-12-18T04:43:04;3.20;;;1.92;;
30020;SDS011;16861;52.294;7.760;2022-12-18T04:45:31;3.28;;;1.80;;
30020;SDS011;16861;52.294;7.760;2022-12-18T04:47:58;3.38;;;2.10;;
30020;SDS011;16861;52.294;7.760;2022-12-18T04:50:25;4.28;;;2.17;;
30020;SDS011;16861;52.294;7.760;2022-12-18T04:52:52;4.55;;;2.05;;
30020;SDS011;16861;52.294;7.760;2022-12-18T04:55:19;2.88;;;2.00;;
30020;SDS011;16861;52.294;7.760;2022-12-18T04:57:45;5.05;;;2.20;;
30020;SDS011;16861;52.294;7.760;2022-12-18T05:00:12;6.13;;;2.45;;
30020;SDS011;16861;52.294;7.760;2022-12-18T05:02:39;4.22;;;2.03;;
30020;SDS011;16861;52.294;7.760;2022-12-18T05:05:06;3.47;;;2.35;;
30020;SDS011;16861;52.294;7.760;2022-12-18T05:07:33;5.68;;;2.33;;
30020;SDS011;16861;52.294;7.760;2022-12-18T05:10:00;3.33;;;2.05;;
30020;SDS011;16861;52.294;7.760;2022-12-18T05:12:26;3.78;;;1.98;;
30020;SDS011;16861;52.294;7.760;2022-12-18T05:14:53;3.53;;;2.15;;
30020;SDS011;16861;52.294;7.760;2022-12-18T05:17:19;3.80;;;2.20;;
30020;SDS011;16861;52.294;7.760;2022-12-18T05:19:46;3.45;;;1.98;;
30020;SDS011;16861;52.294;7.760;2022-12-18T05:22:12;4.90;;;2.10;;
30020;SDS011;16861;52.294;7.760;2022-12-18T05:24:39;3.38;;;1.92;;
30020;SDS011;16861;52.294;7.760;2022-12-18T05:27:06;3.88;;;2.20;;
30020;SDS011;16861;52.294;7.760;2022-12-18T05:29:32;3.53;;;2.22;;
30020;SDS011;16861;52.294;7.760;2022-12-18T05:31:59;3.90;;;2.13;;
30020;SDS011;16861;52.294;7.760;2022-12-18T05:34:25;3.80;;;2.20;;
30020;SDS011;16861;52.294;7.760;2022-12-18T05:36:52;3.70;;;2.08;;
30020;SDS011;16861;52.294;7.760;2022-12-18T05:39:18;3.85;;;2.00;;
30020;SDS011;16861;52.294;7.760;2022-12-18T05:41:45;3.67;;;2.10;;
30020;SDS011;16861;52.294;7.760;2022-12-18T05:44:11;3.00;;;1.88;;
30020;SDS011;16861;52.294;7.760;2022-12-18T05:46:38;5.63;;;2.47;;
30020;SDS011;16861;52.294;7.760;2022-12-18T05:49:06;4.22;;;2.13;;
30020;SDS011;16861;52.294;7.760;2022-12-18T05:51:32;5.05;;;2.40;;
30020;SDS011;16861;52.294;7.760;2022-12-18T05:53:59;5.43;;;2.22;;
30020;SDS011;16861;52.294;7.760;2022-12-18T05:56:25;3.20;;;2.08;;
30020;SDS011;16861;52.294;7.760;2022-12-18T05:58:52;3.47;;;2.22;;
30020;SDS011;16861;52.294;7.760;2022-12-18T06:01:21;5.50;;;2.25;;
30020;SDS011;16861;52.294;7.760;2022-12-18T06:03:51;3.33;;;1.88;;
30020;SDS011;16861;52.294;7.760;2022-12-18T06:06:19;5.32;;;2.60;;
30020;SDS011;16861;52.294;7.760;2022-12-18T06:08:49;6.38;;;2.45;;
30020;SDS011;16861;52.294;7.760;2022-12-18T06:11:18;4.35;;;2.35;;
30020;SDS011;16861;52.294;7.760;2022-12-18T06:13:46;4.38;;;2.15;;
30020;SDS011;16861;52.294;7.760;2022-12-18T06:16:23;4.82;;;2.00;;
30020;SDS011;16861;52.294;7.760;2022-12-18T06:18:49;2.97;;;2.00;;
30020;SDS011;16861;52.294;7.760;2022-12-18T06:21:16;3.00;;;1.85;;
30020;SDS011;16861;52.294;7.760;2022-12-18T06:23:42;4.45;;;2.03;;
30020;SDS011;16861;52.294;7.760;2022-12-18T06:26:10;3.45;;;1.98;;
30020;SDS011;16861;52.294;7.760;2022-12-18T06:28:38;4.70;;;2.13;;
30020;SDS011;16861;52.294;7.760;2022-12-18T06:31:05;3.83;;;2.25;;
30020;SDS011;16861;52.294;7.760;2022-12-18T06:33:32;4.43;;;2.00;;
30020;SDS011;16861;52.294;7.760;2022-12-18T06:36:01;6.07;;;2.60;;
30020;SDS011;16861;52.294;7.760;2022-12-18T06:38:33;5.43;;;2.25;;
30020;SDS011;16861;52.294;7.760;2022-12-18T06:41:00;4.07;;;2.25;;
30020;SDS011;16861;52.294;7.760;2022-12-18T06:43:32;5.55;;;2.28;;
30020;SDS011;16861;52.294;7.760;2022-12-18T06:45:59;8.00;;;2.35;;
30020;SDS011;16861;52.294;7.760;2022-12-18T06:48:26;2.90;;;1.85;;
30020;SDS011;16861;52.294;7.760;2022-12-18T06:50:53;5.15;;;2.55;;
30020;SDS011;16861;52.294;7.760;2022-12-18T06:53:20;5.05;;;2.20;;
30020;SDS011;16861;52.294;7.760;2022-12-18T06:55:46;3.92;;;2.25;;
30020;SDS011;16861;52.294;7.760;2022-12-18T06:58:13;5.03;;;2.20;;
30020;SDS011;16861;52.294;7.760;2022-12-18T07:00:39;4.95;;;2.17;;
30020;SDS011;16861;52.294;7.760;2022-12-18T07:03:06;3.63;;;2.25;;
30020;SDS011;16861;52.294;7.760;2022-12-18T07:05:33;3.25;;;1.75;;
30020;SDS011;16861;52.294;7.760;2022-12-18T07:08:00;3.75;;;2.10;;
30020;SDS011;16861;52.294;7.760;2022-12-18T07:10:27;5.13;;;2.60;;
30020;SDS011;16861;52.294;7.760;2022-12-18T07:12:53;4.00;;;2.15;;
30020;SDS011;16861;52.294;7.760;2022-12-18T07:15:19;4.13;;;2.28;;
30020;SDS011;16861;52.294;7.760;2022-12-18T07:17:46;4.88;;;2.40;;
30020;SDS011;16861;52.294;7.760;2022-12-18T07:20:13;6.40;;;2.38;;
30020;SDS011;16861;52.294;7.760;2022-12-18T07:22:39;4.10;;;1.83;;
30020;SDS011;16861;52.294;7.760;2022-12-18T07:25:06;5.05;;;2.05;;
30020;SDS011;16861;52.294;7.760;2022-12-18T07:27:32;5.03;;;2.58;;
30020;SDS011;16861;52.294;7.760;2022-12-18T07:29:59;3.08;;;1.73;;
30020;SDS011;16861;52.294;7.760;2022-12-18T07:32:25;4.18;;;2.30;;
30020;SDS011;16861;52.294;7.760;2022-12-18T07:34:51;4.47;;;2.33;;
30020;SDS011;16861;52.294;7.760;2022-12-18T07:37:18;3.25;;;2.28;;
30020;SDS011;16861;52.294;7.760;2022-12-18T07:39:44;4.35;;;2.70;;
30020;SDS011;16861;52.294;7.760;2022-12-18T07:42:13;4.60;;;2.58;;
30020;SDS011;16861;52.294;7.760;2022-12-18T07:44:58;5.15;;;2.28;;
30020;SDS011;16861;52.294;7.760;2022-12-18T07:47:26;5.55;;;2.45;;
30020;SDS011;16861;52.294;7.760;2022-12-18T07:49:55;3.80;;;2.30;;
30020;SDS011;16861;52.294;7.760;2022-12-18T07:52:21;8.50;;;2.58;;
30020;SDS011;16861;52.294;7.760;2022-12-18T07:54:51;5.47;;;2.78;;
30020;SDS011;16861;52.294;7.760;2022-12-18T07:57:17;6.00;;;2.78;;
30020;SDS011;16861;52.294;7.760;2022-12-18T08:00:04;5.63;;;2.63;;
30020;SDS011;16861;52.294;7.760;2022-12-18T08:02:31;3.92;;;2.25;;
30020;SDS011;16861;52.294;7.760;2022-12-18T08:04:58;5.97;;;2.78;;
30020;SDS011;16861;52.294;7.760;2022-12-18T08:07:24;5.35;;;2.97;;
30020;SDS011;16861;52.294;7.760;2022-12-18T08:09:50;5.93;;;2.70;;
30020;SDS011;16861;52.294;7.760;2022-12-18T08:12:17;6.63;;;2.95;;
30020;SDS011;16861;52.294;7.760;2022-12-18T08:14:43;5.65;;;2.47;;
30020;SDS011;16861;52.294;7.760;2022-12-18T08:17:09;6.57;;;2.88;;
30020;SDS011;16861;52.294;7.760;2022-12-18T08:19:36;5.28;;;2.67;;
30020;SDS011;16861;52.294;7.760;2022-12-18T08:22:02;5.90;;;3.05;;
30020;SDS011;16861;52.294;7.760;2022-12-18T08:24:29;5.50;;;3.13;;
30020;SDS011;16861;52.294;7.760;2022-12-18T08:26:55;7.50;;;2.97;;
30020;SDS011;16861;52.294;7.760;2022-12-18T08:29:43;5.57;;;3.00;;
30020;SDS011;16861;52.294;7.760;2022-12-18T08:32:09;7.55;;;3.03;;
30020;SDS011;16861;52.294;7.760;2022-12-18T08:34:36;6.38;;;3.20;;
30020;SDS011;16861;52.294;7.760;2022-12-18T08:37:02;8.82;;;3.28;;
30020;SDS011;16861;52.294;7.760;2022-12-18T08:39:28;6.00;;;3.15;;
30020;SDS011;16861;52.294;7.760;2022-12-18T08:41:55;4.65;;;2.67;;
30020;SDS011;16861;52.294;7.760;2022-12-18T08:44:39;5.70;;;3.13;;
30020;SDS011;16861;52.294;7.760;2022-12-18T08:47:07;6.13;;;3.60;;
30020;SDS011;16861;52.294;7.760;2022-12-18T08:49:33;6.18;;;2.97;;
30020;SDS011;16861;52.294;7.760;2022-12-18T08:52:01;5.53;;;3.25;;
30020;SDS011;16861;52.294;7.760;2022-12-18T08:54:28;5.75;;;3.75;;
30020;SDS011;16861;52.294;7.760;2022-12-18T08:56:55;4.70;;;2.90;;
30020;SDS011;16861;52.294;7.760;2022-12-18T08:59:21;4.95;;;3.10;;
30020;SDS011;16861;52.294;7.760;2022-12-18T09:01:49;8.02;;;3.60;;
30020;SDS011;16861;52.294;7.760;2022-12-18T09:04:15;5.45;;;3.42;;
30020;SDS011;16861;52.294;7.760;2022-12-18T09:06:42;5.82;;;3.30;;
30020;SDS011;16861;52.294;7.760;2022-12-18T09:09:08;7.53;;;3.75;;
30020;SDS011;16861;52.294;7.760;2022-12-18T09:11:35;8.75;;;3.90;;
30020;SDS011;16861;52.294;7.760;2022-12-18T09:14:02;5.60;;;3.80;;
30020;SDS011;16861;52.294;7.760;2022-12-18T09:16:30;7.97;;;3.92;;
30020;SDS011;16861;52.294;7.760;2022-12-18T09:18:58;6.75;;;3.60;;
30020;SDS011;16861;52.294;7.760;2022-12-18T09:21:26;5.93;;;3.28;;
30020;SDS011;16861;52.294;7.760;2022-12-18T09:23:55;6.28;;;3.53;;
30020;SDS011;16861;52.294;7.760;2022-12-18T09:26:22;6.20;;;3.15;;
30020;SDS011;16861;52.294;7.760;2022-12-18T09:28:50;6.15;;;3.67;;
30020;SDS011;16861;52.294;7.760;2022-12-18T09:31:17;5.45;;;3.42;;
30020;SDS011;16861;52.294;7.760;2022-12-18T09:33:46;8.85;;;3.60;;
30020;SDS011;16861;52.294;7.760;2022-12-18T09:36:14;6.57;;;3.50;;
30020;SDS011;16861;52.294;7.760;2022-12-18T09:38:41;7.97;;;3.58;;
30020;SDS011;16861;52.294;7.760;2022-12-18T09:41:22;9.88;;;3.38;;
30020;SDS011;16861;52.294;7.760;2022-12-18T09:44:12;4.00;;;2.90;;
30020;SDS011;16861;52.294;7.760;2022-12-18T09:46:42;5.78;;;3.42;;
30020;SDS011;16861;52.294;7.760;2022-12-18T09:49:14;5.03;;;2.97;;
30020;SDS011;16861;52.294;7.760;2022-12-18T09:51:44;5.28;;;3.05;;
30020;SDS011;16861;52.294;7.760;2022-12-18T09:54:14;6.53;;;3.60;;
30020;SDS011;16861;52.294;7.760;2022-12-18T09:56:46;5.65;;;3.20;;
30020;SDS011;16861;52.294;7.760;2022-12-18T09:59:16;5.20;;;3.00;;
30020;SDS011;16861;52.294;7.760;2022-12-18T10:01:47;8.10;;;3.58;;
30020;SDS011;16861;52.294;7.760;2022-12-18T10:04:13;7.00;;;3.60;;
30020;SDS011;16861;52.294;7.760;2022-12-18T10:06:52;7.57;;;3.72;;
30020;SDS011;16861;52.294;7.760;2022-12-18T10:12:15;6.38;;;3.15;;
30020;SDS011;16861;52.294;7.760;2022-12-18T10:19:48;5.35;;;3.53;;
30020;SDS011;16861;52.294;7.760;2022-12-18T10:24:59;7.40;;;3.83;;
30020;SDS011;16861;52.294;7.760;2022-12-18T10:27:39;6.13;;;3.35;;
30020;SDS011;16861;52.294;7.760;2022-12-18T10:30:13;5.80;;;3.90;;
30020;SDS011;16861;52.294;7.760;2022-12-18T10:32:41;6.82;;;3.80;;
30020;SDS011;16861;52.294;7.760;2022-12-18T10:35:11;6.72;;;3.65;;
30020;SDS011;16861;52.294;7.760;2022-12-18T10:38:01;7.28;;;3.72;;
30020;SDS011;16861;52.294;7.760;2022-12-18T10:40:30;6.75;;;3.80;;
30020;SDS011;16861;52.294;7.760;2022-12-18T10:43:04;8.27;;;3.92;;
30020;SDS011;16861;52.294;7.760;2022-12-18T10:45:32;6.18;;;3.90;;
30020;SDS011;16861;52.294;7.760;2022-12-18T10:47:58;7.65;;;4.20;;
30020;SDS011;16861;52.294;7.760;2022-12-18T10:53:23;7.75;;;4.25;;
30020;SDS011;16861;52.294;7.760;2022-12-18T10:55:52;7.85;;;4.40;;
30020;SDS011;16861;52.294;7.760;2022-12-18T10:58:25;6.47;;;4.20;;
30020;SDS011;16861;52.294;7.760;2022-12-18T11:06:25;8.40;;;3.88;;
30020;SDS011;16861;52.294;7.760;2022-12-18T11:08:59;8.68;;;3.70;;
30020;SDS011;16861;52.294;7.760;2022-12-18T11:11:31;7.63;;;4.57;;
30020;SDS011;16861;52.294;7.760;2022-12-18T11:14:02;7.82;;;4.32;;
30020;SDS011;16861;52.294;7.760;2022-12-18T11:16:35;6.53;;;4.20;;
30020;SDS011;16861;52.294;7.760;2022-12-18T11:19:30;7.82;;;4.47;;
30020;SDS011;16861;52.294;7.760;2022-12-18T11:22:00;7.50;;;4.43;;
30020;SDS011;16861;52.294;7.760;2022-12-18T11:24:30;5.80;;;4.10;;
30020;SDS011;16861;52.294;7.760;2022-12-18T11:26:59;7.75;;;4.78;;
30020;SDS011;16861;52.294;7.760;2022-12-18T11:29:38;8.57;;;4.68;;
30020;SDS011;16861;52.294;7.760;2022-12-18T11:34:41;8.02;;;4.70;;
30020;SDS011;16861;52.294;7.760;2022-12-18T11:37:13;7.07;;;4.75;;
30020;SDS011;16861;52.294;7.760;2022-12-18T11:39:46;11.88;;;5.47;;
30020;SDS011;16861;52.294;7.760;2022-12-18T11:42:20;8.20;;;4.65;;
30020;SDS011;16861;52.294;7.760;2022-12-18T11:50:23;9.68;;;5.15;;
30020;SDS011;16861;52.294;7.760;2022-12-18T11:52:52;7.47;;;4.93;;
30020;SDS011;16861;52.294;7.760;2022-12-18T11:55:28;6.60;;;4.65;;
30020;SDS011;16861;52.294;7.760;2022-12-18T11:58:12;9.32;;;5.22;;
30020;SDS011;16861;52.294;7.760;2022-12-18T12:00:54;9.05;;;4.78;;
30020;SDS011;16861;52.294;7.760;2022-12-18T12:03:39;8.27;;;5.18;;
30020;SDS011;16861;52.294;7.760;2022-12-18T12:08:57;10.05;;;5.38;;
30020;SDS011;16861;52.294;7.760;2022-12-18T12:17:38;9.23;;;5.57;;
30020;SDS011;16861;52.294;7.760;2022-12-18T12:20:20;14.68;;;6.18;;
30020;SDS011;16861;52.294;7.760;2022-12-18T12:25:55;10.73;;;5.88;;
30020;SDS011;16861;52.294;7.760;2022-12-18T12:34:15;12.55;;;6.38;;
30020;SDS011;16861;52.294;7.760;2022-12-18T12:39:27;10.98;;;7.07;;
30020;SDS011;16861;52.294;7.760;2022-12-18T12:41:57;13.13;;;7.80;;
30020;SDS011;16861;52.294;7.760;2022-12-18T12:44:44;13.75;;;8.05;;
30020;SDS011;16861;52.294;7.760;2022-12-18T12:47:23;14.48;;;8.13;;
30020;SDS011;16861;52.294;7.760;2022-12-18T12:49:54;19.73;;;9.50;;
30020;SDS011;16861;52.294;7.760;2022-12-18T12:52:35;14.80;;;8.82;;
30020;SDS011;16861;52.294;7.760;2022-12-18T12:55:14;17.40;;;9.37;;
30020;SDS011;16861;52.294;7.760;2022-12-18T13:00:49;14.93;;;8.25;;
30020;SDS011;16861;52.294;7.760;2022-12-18T13:06:23;16.35;;;8.48;;
30020;SDS011;16861;52.294;7.760;2022-12-18T13:11:30;16.08;;;9.02;;
30020;SDS011;16861;52.294;7.760;2022-12-18T13:14:29;15.77;;;9.30;;
30020;SDS011;16861;52.294;7.760;2022-12-18T13:17:14;15.88;;;9.32;;
30020;SDS011;16861;52.294;7.760;2022-12-18T13:22:47;13.50;;;8.57;;
30020;SDS011;16861;52.294;7.760;2022-12-18T13:28:08;14.45;;;9.00;;
30020;SDS011;16861;52.294;7.760;2022-12-18T13:30:48;15.38;;;8.75;;
30020;SDS011;16861;52.294;7.760;2022-12-18T13:38:36;16.20;;;7.88;;
30020;SDS011;16861;52.294;7.760;2022-12-18T13:43:55;11.60;;;7.00;;
30020;SDS011;16861;52.294;7.760;2022-12-18T13:46:29;12.45;;;7.22;;
30020;SDS011;16861;52.294;7.760;2022-12-18T13:51:44;15.07;;;7.53;;
30020;SDS011;16861;52.294;7.760;2022-12-18T13:54:18;12.57;;;7.53;;
30020;SDS011;16861;52.294;7.760;2022-12-18T13:56:46;11.95;;;7.28;;
30020;SDS011;16861;52.294;7.760;2022-12-18T14:01:42;11.23;;;7.10;;
30020;SDS011;16861;52.294;7.760;2022-12-18T14:04:20;12.55;;;7.38;;
30020;SDS011;16861;52.294;7.760;2022-12-18T14:06:47;12.30;;;7.60;;
30020;SDS011;16861;52.294;7.760;2022-12-18T14:09:20;13.38;;;7.43;;
30020;SDS011;16861;52.294;7.760;2022-12-18T14:11:52;13.70;;;7.53;;
30020;SDS011;16861;52.294;7.760;2022-12-18T14:14:42;11.27;;;6.88;;
30020;SDS011;16861;52.294;7.760;2022-12-18T14:17:11;13.48;;;7.40;;
30020;SDS011;16861;52.294;7.760;2022-12-18T14:19:45;12.68;;;7.05;;
30020;SDS011;16861;52.294;7.760;2022-12-18T14:22:16;11.50;;;6.82;;
30020;SDS011;16861;52.294;7.760;2022-12-18T14:24:45;10.55;;;6.80;;
30020;SDS011;16861;52.294;7.760;2022-12-18T14:27:12;10.75;;;6.40;;
30020;SDS011;16861;52.294;7.760;2022-12-18T14:29:50;13.50;;;6.25;;
30020;SDS011;16861;52.294;7.760;2022-12-18T14:32:18;11.88;;;6.70;;
30020;SDS011;16861;52.294;7.760;2022-12-18T14:34:47;12.00;;;6.72;;
30020;SDS011;16861;52.294;7.760;2022-12-18T14:37:17;11.85;;;7.07;;
30020;SDS011;16861;52.294;7.760;2022-12-18T14:39:54;9.65;;;5.32;;
30020;SDS011;16861;52.294;7.760;2022-12-18T14:42:36;10.77;;;6.30;;
30020;SDS011;16861;52.294;7.760;2022-12-18T14:48:52;10.52;;;5.78;;
30020;SDS011;16861;52.294;7.760;2022-12-18T14:50:57;14.38;;;5.45;;
30020;SDS011;16861;52.294;7.760;2022-12-18T14:53:29;8.63;;;5.30;;
30020;SDS011;16861;52.294;7.760;2022-12-18T14:56:14;10.35;;;5.68;;
30020;SDS011;16861;52.294;7.760;2022-12-18T14:59:32;13.27;;;6.03;;
30020;SDS011;16861;52.294;7.760;2022-12-18T15:09:31;8.75;;;5.90;;
30020;SDS011;16861;52.294;7.760;2022-12-18T15:11:58;10.27;;;5.35;;
30020;SDS011;16861;52.294;7.760;2022-12-18T15:16:56;9.93;;;5.65;;
30020;SDS011;16861;52.294;7.760;2022-12-18T15:19:31;8.88;;;5.43;;
30020;SDS011;16861;52.294;7.760;2022-12-18T15:22:01;8.82;;;5.22;;
30020;SDS011;16861;52.294;7.760;2022-12-18T15:24:32;9.73;;;5.35;;
30020;SDS011;16861;52.294;7.760;2022-12-18T15:26:59;8.10;;;5.53;;
30020;SDS011;16861;52.294;7.760;2022-12-18T15:29:26;9.82;;;5.22;;
30020;SDS011;16861;52.294;7.760;2022-12-18T15:31:59;9.50;;;5.20;;
30020;SDS011;16861;52.294;7.760;2022-12-18T15:34:26;9.00;;;5.30;;
30020;SDS011;16861;52.294;7.760;2022-12-18T15:36:53;7.63;;;4.82;;
30020;SDS011;16861;52.294;7.760;2022-12-18T15:39:19;9.05;;;4.25;;
30020;SDS011;16861;52.294;7.760;2022-12-18T15:41:46;8.13;;;4.55;;
30020;SDS011;16861;52.294;7.760;2022-12-18T15:44:34;8.85;;;4.70;;
30020;SDS011;16861;52.294;7.760;2022-12-18T15:47:01;7.40;;;4.25;;
30020;SDS011;16861;52.294;7.760;2022-12-18T15:49:27;6.75;;;4.30;;
30020;SDS011;16861;52.294;7.760;2022-12-18T15:51:54;7.90;;;4.38;;
30020;SDS011;16861;52.294;7.760;2022-12-18T15:54:24;7.03;;;4.10;;
30020;SDS011;16861;52.294;7.760;2022-12-18T15:57:09;6.50;;;4.07;;
30020;SDS011;16861;52.294;7.760;2022-12-18T16:02:21;7.00;;;3.80;;
30020;SDS011;16861;52.294;7.760;2022-12-18T16:04:50;7.75;;;4.07;;
30020;SDS011;16861;52.294;7.760;2022-12-18T16:07:18;4.88;;;3.45;;
30020;SDS011;16861;52.294;7.760;2022-12-18T16:09:51;5.50;;;3.65;;
30020;SDS011;16861;52.294;7.760;2022-12-18T16:12:19;5.95;;;3.47;;
30020;SDS011;16861;52.294;7.760;2022-12-18T16:14:48;5.72;;;3.63;;
30020;SDS011;16861;52.294;7.760;2022-12-18T16:17:15;6.68;;;3.92;;
30020;SDS011;16861;52.294;7.760;2022-12-18T16:19:42;7.55;;;4.40;;
30020;SDS011;16861;52.294;7.760;2022-12-18T16:22:15;7.63;;;3.88;;
30020;SDS011;16861;52.294;7.760;2022-12-18T16:24:45;5.47;;;3.50;;
30020;SDS011;16861;52.294;7.760;2022-12-18T16:27:12;8.68;;;4.25;;
30020;SDS011;16861;52.294;7.760;2022-12-18T16:29:38;5.50;;;3.75;;
30020;SDS011;16861;52.294;7.760;2022-12-18T16:32:05;7.40;;;3.95;;
30020;SDS011;16861;52.294;7.760;2022-12-18T16:34:32;7.88;;;4.20;;
30020;SDS011;16861;52.294;7.760;2022-12-18T16:37:03;7.22;;;3.90;;
30020;SDS011;16861;52.294;7.760;2022-12-18T16:39:32;6.60;;;3.88;;
30020;SDS011;16861;52.294;7.760;2022-12-18T16:42:04;6.72;;;3.92;;
30020;SDS011;16861;52.294;7.760;2022-12-18T16:44:33;5.82;;;3.88;;
30020;SDS011;16861;52.294;7.760;2022-12-18T16:47:01;7.18;;;4.28;;
30020;SDS011;16861;52.294;7.760;2022-12-18T16:49:28;6.88;;;4.00;;
30020;SDS011;16861;52.294;7.760;2022-12-18T16:51:55;6.78;;;3.85;;
30020;SDS011;16861;52.294;7.760;2022-12-18T16:54:22;6.45;;;3.55;;
30020;SDS011;16861;52.294;7.760;2022-12-18T16:56:49;9.27;;;4.40;;
30020;SDS011;16861;52.294;7.760;2022-12-18T16:59:16;8.73;;;4.25;;
30020;SDS011;16861;52.294;7.760;2022-12-18T17:01:44;6.38;;;4.45;;
30020;SDS011;16861;52.294;7.760;2022-12-18T17:04:10;7.97;;;4.22;;
30020;SDS011;16861;52.294;7.760;2022-12-18T17:06:41;6.70;;;4.30;;
30020;SDS011;16861;52.294;7.760;2022-12-18T17:09:13;6.03;;;4.05;;
30020;SDS011;16861;52.294;7.760;2022-12-18T17:11:41;7.32;;;4.30;;